sensor_id;sensor_type;location;lat;lon;timestamp;temperature;humidity
64396;DHT22;50717;53.360;6.290;2022-10-19T00:01:41;11.80;99.90
64396;DHT22;50717;53.360;6.290;2022-10-19T00:04:07;12.00;99.90
64396;DHT22;50717;53.360;6.290;2022-10-19T00:06:34;11.90;99.90
64396;DHT22;50717;53.360;6.290;2022-10-19T00:09:06;11.90;99.90
64396;DHT22;50717;53.360;6.290;2022-10-19T00:11:33;11.70;99.90
64396;DHT22;50717;53.360;6.290;2022-10-19T00:14:00;11.70;99.90
64396;DHT22;50717;53.360;6.290;2022-10-19T00:16:28;11.90;99.90
64396;DHT22;50717;53.360;6.290;2022-10-19T00:18:59;12.00;99.90
64396;DHT22;50717;53.360;6.290;2022-10-19T00:21:25;12.10;99.90
64396;DHT22;50717;53.360;6.290;2022-10-19T00:23:51;11.80;99.90
64396;DHT22;50717;53.360;6.290;2022-10-19T00:26:17;11.70;99.90
64396;DHT22;50717;53.360;6.290;2022-10-19T00:28:42;11.90;99.90
64396;DHT22;50717;53.360;6.290;2022-10-19T00:31:12;11.90;99.90
64396;DHT22;50717;53.360;6.290;2022-10-19T00:33:38;11.90;99.90
64396;DHT22;50717;53.360;6.290;2022-10-19T00:36:04;11.80;99.90
64396;DHT22;50717;53.360;6.290;2022-10-19T00:38:30;12.00;99.90
64396;DHT22;50717;53.360;6.290;2022-10-19T00:40:56;11.90;99.90
64396;DHT22;50717;53.360;6.290;2022-10-19T00:43:24;12.00;99.90
64396;DHT22;50717;53.360;6.290;2022-10-19T00:45:51;12.20;99.90
64396;DHT22;50717;53.360;6.290;2022-10-19T00:48:30;11.90;99.90
64396;DHT22;50717;53.360;6.290;2022-10-19T00:50:58;12.10;99.90
64396;DHT22;50717;53.360;6.290;2022-10-19T00:53:26;11.80;99.90
64396;DHT22;50717;53.360;6.290;2022-10-19T00:55:53;11.90;99.90
64396;DHT22;50717;53.360;6.290;2022-10-19T00:58:20;11.90;99.90
64396;DHT22;50717;53.360;6.290;2022-10-19T01:00:46;12.70;99.90
64396;DHT22;50717;53.360;6.290;2022-10-19T01:03:12;11.90;99.90
64396;DHT22;50717;53.360;6.290;2022-10-19T01:05:38;11.80;99.90
64396;DHT22;50717;53.360;6.290;2022-10-19T01:08:05;12.00;99.90
64396;DHT22;50717;53.360;6.290;2022-10-19T01:15:59;11.80;99.90
64396;DHT22;50717;53.360;6.290;2022-10-19T01:21:01;11.80;99.90
64396;DHT22;50717;53.360;6.290;2022-10-19T01:32:05;12.10;99.90
64396;DHT22;50717;53.360;6.290;2022-10-19T01:34:38;11.80;99.90
64396;DHT22;50717;53.360;6.290;2022-10-19T01:40:09;12.00;99.90
64396;DHT22;50717;53.360;6.290;2022-10-19T01:42:44;12.30;99.90
64396;DHT22;50717;53.360;6.290;2022-10-19T01:45:29;11.70;99.90
64396;DHT22;50717;53.360;6.290;2022-10-19T01:48:27;11.80;99.90
64396;DHT22;50717;53.360;6.290;2022-10-19T01:50:59;11.80;99.90
64396;DHT22;50717;53.360;6.290;2022-10-19T01:53:28;11.90;99.90
64396;DHT22;50717;53.360;6.290;2022-10-19T01:55:55;12.10;99.90
64396;DHT22;50717;53.360;6.290;2022-10-19T01:58:26;11.80;99.90
64396;DHT22;50717;53.360;6.290;2022-10-19T02:00:55;11.30;99.90
64396;DHT22;50717;53.360;6.290;2022-10-19T02:03:23;11.60;99.90
64396;DHT22;50717;53.360;6.290;2022-10-19T02:05:51;11.70;99.90
64396;DHT22;50717;53.360;6.290;2022-10-19T02:08:23;11.70;99.90
64396;DHT22;50717;53.360;6.290;2022-10-19T02:10:51;11.70;99.90
64396;DHT22;50717;53.360;6.290;2022-10-19T02:13:18;11.90;99.90
64396;DHT22;50717;53.360;6.290;2022-10-19T02:15:48;11.60;99.90
64396;DHT22;50717;53.360;6.290;2022-10-19T02:18:19;11.70;99.90
64396;DHT22;50717;53.360;6.290;2022-10-19T02:20:47;11.30;99.90
64396;DHT22;50717;53.360;6.290;2022-10-19T02:23:14;12.10;99.90
64396;DHT22;50717;53.360;6.290;2022-10-19T02:25:41;11.50;99.90
64396;DHT22;50717;53.360;6.290;2022-10-19T02:28:07;11.30;99.90
64396;DHT22;50717;53.360;6.290;2022-10-19T02:30:33;11.60;99.90
64396;DHT22;50717;53.360;6.290;2022-10-19T02:32:59;11.90;99.90
64396;DHT22;50717;53.360;6.290;2022-10-19T02:35:24;11.80;99.90
64396;DHT22;50717;53.360;6.290;2022-10-19T02:37:50;11.60;99.90
64396;DHT22;50717;53.360;6.290;2022-10-19T02:40:16;11.90;99.90
64396;DHT22;50717;53.360;6.290;2022-10-19T02:42:55;11.20;99.90
64396;DHT22;50717;53.360;6.290;2022-10-19T02:45:35;13.10;99.90
64396;DHT22;50717;53.360;6.290;2022-10-19T02:48:10;11.40;99.90
64396;DHT22;50717;53.360;6.290;2022-10-19T02:50:37;11.10;99.90
64396;DHT22;50717;53.360;6.290;2022-10-19T02:53:07;11.30;99.90
64396;DHT22;50717;53.360;6.290;2022-10-19T02:55:33;11.60;99.90
64396;DHT22;50717;53.360;6.290;2022-10-19T02:57:59;11.10;99.90
64396;DHT22;50717;53.360;6.290;2022-10-19T03:00:24;11.00;99.90
64396;DHT22;50717;53.360;6.290;2022-10-19T03:02:50;11.70;99.90
64396;DHT22;50717;53.360;6.290;2022-10-19T03:05:16;10.80;99.90
64396;DHT22;50717;53.360;6.290;2022-10-19T03:07:41;11.50;99.90
64396;DHT22;50717;53.360;6.290;2022-10-19T03:10:08;11.50;99.90
64396;DHT22;50717;53.360;6.290;2022-10-19T03:12:33;11.10;99.90
64396;DHT22;50717;53.360;6.290;2022-10-19T03:14:59;10.60;99.90
64396;DHT22;50717;53.360;6.290;2022-10-19T03:17:25;11.20;99.90
64396;DHT22;50717;53.360;6.290;2022-10-19T03:19:50;11.10;99.90
64396;DHT22;50717;53.360;6.290;2022-10-19T03:22:16;10.70;99.90
64396;DHT22;50717;53.360;6.290;2022-10-19T03:24:41;10.80;99.90
64396;DHT22;50717;53.360;6.290;2022-10-19T03:27:07;10.70;99.90
64396;DHT22;50717;53.360;6.290;2022-10-19T03:29:33;11.00;99.90
64396;DHT22;50717;53.360;6.290;2022-10-19T03:31:58;10.40;99.90
64396;DHT22;50717;53.360;6.290;2022-10-19T03:34:24;10.60;99.90
64396;DHT22;50717;53.360;6.290;2022-10-19T03:36:50;11.50;99.90
64396;DHT22;50717;53.360;6.290;2022-10-19T03:39:16;10.60;99.90
64396;DHT22;50717;53.360;6.290;2022-10-19T03:41:42;10.30;99.90
64396;DHT22;50717;53.360;6.290;2022-10-19T03:44:08;10.60;99.90
64396;DHT22;50717;53.360;6.290;2022-10-19T03:46:35;10.30;99.90
64396;DHT22;50717;53.360;6.290;2022-10-19T03:49:01;10.10;99.90
64396;DHT22;50717;53.360;6.290;2022-10-19T03:51:29;10.50;99.90
64396;DHT22;50717;53.360;6.290;2022-10-19T03:54:05;10.30;99.90
64396;DHT22;50717;53.360;6.290;2022-10-19T03:56:33;10.00;99.90
64396;DHT22;50717;53.360;6.290;2022-10-19T03:59:00;9.80;99.90
64396;DHT22;50717;53.360;6.290;2022-10-19T04:01:29;10.10;99.90
64396;DHT22;50717;53.360;6.290;2022-10-19T04:04:13;10.70;99.90
64396;DHT22;50717;53.360;6.290;2022-10-19T04:06:41;8.20;99.90
64396;DHT22;50717;53.360;6.290;2022-10-19T04:09:10;9.80;99.90
64396;DHT22;50717;53.360;6.290;2022-10-19T04:11:37;9.80;99.90
64396;DHT22;50717;53.360;6.290;2022-10-19T04:14:02;9.60;99.90
64396;DHT22;50717;53.360;6.290;2022-10-19T04:16:30;10.10;99.90
64396;DHT22;50717;53.360;6.290;2022-10-19T04:18:56;10.30;99.90
64396;DHT22;50717;53.360;6.290;2022-10-19T04:23:52;9.70;99.90
64396;DHT22;50717;53.360;6.290;2022-10-19T04:26:19;9.60;99.90
64396;DHT22;50717;53.360;6.290;2022-10-19T04:28:45;9.70;99.90
64396;DHT22;50717;53.360;6.290;2022-10-19T04:31:11;9.70;99.90
64396;DHT22;50717;53.360;6.290;2022-10-19T04:33:37;9.70;99.90
64396;DHT22;50717;53.360;6.290;2022-10-19T04:36:07;9.50;99.90
64396;DHT22;50717;53.360;6.290;2022-10-19T04:38:34;9.80;99.90
64396;DHT22;50717;53.360;6.290;2022-10-19T04:41:01;10.00;99.90
64396;DHT22;50717;53.360;6.290;2022-10-19T04:43:28;9.80;99.90
64396;DHT22;50717;53.360;6.290;2022-10-19T04:45:53;10.00;99.90
64396;DHT22;50717;53.360;6.290;2022-10-19T04:48:19;11.10;99.90
64396;DHT22;50717;53.360;6.290;2022-10-19T04:50:45;10.20;99.90
64396;DHT22;50717;53.360;6.290;2022-10-19T04:53:10;10.30;99.90
64396;DHT22;50717;53.360;6.290;2022-10-19T04:55:40;9.90;99.90
64396;DHT22;50717;53.360;6.290;2022-10-19T04:58:06;10.50;99.90
64396;DHT22;50717;53.360;6.290;2022-10-19T05:00:32;10.10;99.90
64396;DHT22;50717;53.360;6.290;2022-10-19T05:02:58;9.90;99.90
64396;DHT22;50717;53.360;6.290;2022-10-19T05:05:23;10.30;99.90
64396;DHT22;50717;53.360;6.290;2022-10-19T05:07:51;10.40;99.90
64396;DHT22;50717;53.360;6.290;2022-10-19T05:10:17;10.80;99.90
64396;DHT22;50717;53.360;6.290;2022-10-19T05:12:42;10.80;99.90
64396;DHT22;50717;53.360;6.290;2022-10-19T05:15:08;10.50;99.90
64396;DHT22;50717;53.360;6.290;2022-10-19T05:17:34;10.60;99.90
64396;DHT22;50717;53.360;6.290;2022-10-19T05:20:00;10.60;99.90
64396;DHT22;50717;53.360;6.290;2022-10-19T05:22:26;10.40;99.90
64396;DHT22;50717;53.360;6.290;2022-10-19T05:24:51;10.60;99.90
64396;DHT22;50717;53.360;6.290;2022-10-19T05:27:17;10.70;99.90
64396;DHT22;50717;53.360;6.290;2022-10-19T05:29:43;10.50;99.90
64396;DHT22;50717;53.360;6.290;2022-10-19T05:32:09;11.10;99.90
64396;DHT22;50717;53.360;6.290;2022-10-19T05:34:34;10.70;99.90
64396;DHT22;50717;53.360;6.290;2022-10-19T05:37:00;10.80;99.90
64396;DHT22;50717;53.360;6.290;2022-10-19T05:39:25;10.80;99.90
64396;DHT22;50717;53.360;6.290;2022-10-19T05:41:51;10.70;99.90
64396;DHT22;50717;53.360;6.290;2022-10-19T05:44:19;10.70;99.90
64396;DHT22;50717;53.360;6.290;2022-10-19T05:46:45;10.60;99.90
64396;DHT22;50717;53.360;6.290;2022-10-19T05:49:12;11.20;99.90
64396;DHT22;50717;53.360;6.290;2022-10-19T05:51:38;10.90;99.90
64396;DHT22;50717;53.360;6.290;2022-10-19T05:54:04;11.00;99.90
64396;DHT22;50717;53.360;6.290;2022-10-19T05:56:31;10.90;99.90
64396;DHT22;50717;53.360;6.290;2022-10-19T05:58:58;10.90;99.90
64396;DHT22;50717;53.360;6.290;2022-10-19T06:01:25;10.90;99.90
64396;DHT22;50717;53.360;6.290;2022-10-19T06:03:53;11.10;99.90
64396;DHT22;50717;53.360;6.290;2022-10-19T06:06:19;11.00;99.90
64396;DHT22;50717;53.360;6.290;2022-10-19T06:08:46;11.00;99.90
64396;DHT22;50717;53.360;6.290;2022-10-19T06:13:42;10.70;99.90
64396;DHT22;50717;53.360;6.290;2022-10-19T06:16:09;11.20;99.90
64396;DHT22;50717;53.360;6.290;2022-10-19T06:18:36;11.40;99.90
64396;DHT22;50717;53.360;6.290;2022-10-19T06:21:10;11.30;99.90
64396;DHT22;50717;53.360;6.290;2022-10-19T06:23:36;11.10;99.90
64396;DHT22;50717;53.360;6.290;2022-10-19T06:26:04;11.00;99.90
64396;DHT22;50717;53.360;6.290;2022-10-19T06:28:29;11.00;99.90
64396;DHT22;50717;53.360;6.290;2022-10-19T06:30:59;11.10;99.90
64396;DHT22;50717;53.360;6.290;2022-10-19T06:33:28;11.00;99.90
64396;DHT22;50717;53.360;6.290;2022-10-19T06:35:54;10.70;99.90
64396;DHT22;50717;53.360;6.290;2022-10-19T06:38:20;11.00;99.90
64396;DHT22;50717;53.360;6.290;2022-10-19T06:40:46;11.60;99.90
64396;DHT22;50717;53.360;6.290;2022-10-19T06:43:14;11.10;99.90
64396;DHT22;50717;53.360;6.290;2022-10-19T06:45:39;11.00;99.90
64396;DHT22;50717;53.360;6.290;2022-10-19T06:48:05;11.00;99.90
64396;DHT22;50717;53.360;6.290;2022-10-19T06:50:32;11.00;99.90
64396;DHT22;50717;53.360;6.290;2022-10-19T06:52:58;11.30;99.90
64396;DHT22;50717;53.360;6.290;2022-10-19T06:55:24;11.40;99.90
64396;DHT22;50717;53.360;6.290;2022-10-19T06:57:50;11.30;99.90
64396;DHT22;50717;53.360;6.290;2022-10-19T07:00:16;11.20;99.90
64396;DHT22;50717;53.360;6.290;2022-10-19T07:02:42;11.00;99.90
64396;DHT22;50717;53.360;6.290;2022-10-19T07:05:08;11.40;99.90
64396;DHT22;50717;53.360;6.290;2022-10-19T07:07:34;11.20;99.90
64396;DHT22;50717;53.360;6.290;2022-10-19T07:10:00;11.50;99.90
64396;DHT22;50717;53.360;6.290;2022-10-19T07:12:26;11.50;99.90
64396;DHT22;50717;53.360;6.290;2022-10-19T07:14:52;11.40;99.90
64396;DHT22;50717;53.360;6.290;2022-10-19T07:17:18;11.10;99.90
64396;DHT22;50717;53.360;6.290;2022-10-19T07:19:44;11.40;99.90
64396;DHT22;50717;53.360;6.290;2022-10-19T07:22:10;11.90;99.90
64396;DHT22;50717;53.360;6.290;2022-10-19T07:24:35;11.50;99.90
64396;DHT22;50717;53.360;6.290;2022-10-19T07:27:01;11.70;99.90
64396;DHT22;50717;53.360;6.290;2022-10-19T07:29:27;11.80;99.90
64396;DHT22;50717;53.360;6.290;2022-10-19T07:31:53;11.80;99.90
64396;DHT22;50717;53.360;6.290;2022-10-19T07:34:18;11.80;99.90
64396;DHT22;50717;53.360;6.290;2022-10-19T07:36:45;11.70;99.90
64396;DHT22;50717;53.360;6.290;2022-10-19T07:39:13;11.60;99.90
64396;DHT22;50717;53.360;6.290;2022-10-19T07:41:39;11.80;99.90
64396;DHT22;50717;53.360;6.290;2022-10-19T07:44:05;11.80;99.90
64396;DHT22;50717;53.360;6.290;2022-10-19T07:46:31;11.90;99.90
64396;DHT22;50717;53.360;6.290;2022-10-19T07:49:03;12.00;99.90
64396;DHT22;50717;53.360;6.290;2022-10-19T07:51:29;11.90;99.90
64396;DHT22;50717;53.360;6.290;2022-10-19T07:53:57;12.10;99.90
64396;DHT22;50717;53.360;6.290;2022-10-19T07:56:24;12.20;99.90
64396;DHT22;50717;53.360;6.290;2022-10-19T07:58:52;12.20;99.90
64396;DHT22;50717;53.360;6.290;2022-10-19T08:01:21;12.00;99.90
64396;DHT22;50717;53.360;6.290;2022-10-19T08:03:47;11.90;99.90
64396;DHT22;50717;53.360;6.290;2022-10-19T08:06:15;12.00;99.90
64396;DHT22;50717;53.360;6.290;2022-10-19T08:08:42;12.00;99.90
64396;DHT22;50717;53.360;6.290;2022-10-19T08:11:09;12.40;99.90
64396;DHT22;50717;53.360;6.290;2022-10-19T08:13:35;12.20;99.90
64396;DHT22;50717;53.360;6.290;2022-10-19T08:16:01;12.00;99.90
64396;DHT22;50717;53.360;6.290;2022-10-19T08:18:26;12.10;99.90
64396;DHT22;50717;53.360;6.290;2022-10-19T08:20:52;12.60;99.90
64396;DHT22;50717;53.360;6.290;2022-10-19T08:23:18;12.40;99.90
64396;DHT22;50717;53.360;6.290;2022-10-19T08:25:43;12.10;99.90
64396;DHT22;50717;53.360;6.290;2022-10-19T08:28:09;12.50;99.90
64396;DHT22;50717;53.360;6.290;2022-10-19T08:30:35;12.50;99.90
64396;DHT22;50717;53.360;6.290;2022-10-19T08:33:01;12.50;99.90
64396;DHT22;50717;53.360;6.290;2022-10-19T08:35:29;12.60;99.90
64396;DHT22;50717;53.360;6.290;2022-10-19T08:37:55;12.50;99.90
64396;DHT22;50717;53.360;6.290;2022-10-19T08:40:27;12.60;99.90
64396;DHT22;50717;53.360;6.290;2022-10-19T08:43:25;12.50;99.90
64396;DHT22;50717;53.360;6.290;2022-10-19T08:48:34;12.60;99.90
64396;DHT22;50717;53.360;6.290;2022-10-19T08:51:04;12.70;99.90
64396;DHT22;50717;53.360;6.290;2022-10-19T08:56:17;12.70;99.90
64396;DHT22;50717;53.360;6.290;2022-10-19T08:59:11;12.70;99.90
64396;DHT22;50717;53.360;6.290;2022-10-19T09:06:58;13.00;99.90
64396;DHT22;50717;53.360;6.290;2022-10-19T09:09:29;13.20;99.90
64396;DHT22;50717;53.360;6.290;2022-10-19T09:12:02;13.00;99.90
64396;DHT22;50717;53.360;6.290;2022-10-19T09:14:42;13.10;99.90
64396;DHT22;50717;53.360;6.290;2022-10-19T09:17:13;13.30;99.90
64396;DHT22;50717;53.360;6.290;2022-10-19T09:19:40;13.00;99.90
64396;DHT22;50717;53.360;6.290;2022-10-19T09:22:26;13.10;99.90
64396;DHT22;50717;53.360;6.290;2022-10-19T09:24:59;13.00;99.90
64396;DHT22;50717;53.360;6.290;2022-10-19T09:27:34;13.10;99.90
64396;DHT22;50717;53.360;6.290;2022-10-19T09:30:09;12.90;99.90
64396;DHT22;50717;53.360;6.290;2022-10-19T09:32:38;13.30;99.90
64396;DHT22;50717;53.360;6.290;2022-10-19T09:35:04;13.30;99.90
64396;DHT22;50717;53.360;6.290;2022-10-19T09:37:36;13.20;99.90
64396;DHT22;50717;53.360;6.290;2022-10-19T09:40:05;13.50;99.90
64396;DHT22;50717;53.360;6.290;2022-10-19T09:42:32;13.40;99.90
64396;DHT22;50717;53.360;6.290;2022-10-19T09:45:01;13.20;99.90
64396;DHT22;50717;53.360;6.290;2022-10-19T09:47:38;13.30;99.90
64396;DHT22;50717;53.360;6.290;2022-10-19T09:50:17;13.40;99.90
64396;DHT22;50717;53.360;6.290;2022-10-19T09:52:45;13.40;99.90
64396;DHT22;50717;53.360;6.290;2022-10-19T09:55:38;13.40;99.90
64396;DHT22;50717;53.360;6.290;2022-10-19T10:00:43;13.30;99.90
64396;DHT22;50717;53.360;6.290;2022-10-19T10:05:49;13.30;99.90
64396;DHT22;50717;53.360;6.290;2022-10-19T10:08:49;13.60;99.90
64396;DHT22;50717;53.360;6.290;2022-10-19T10:13:40;13.40;99.90
64396;DHT22;50717;53.360;6.290;2022-10-19T10:16:08;13.30;99.90
64396;DHT22;50717;53.360;6.290;2022-10-19T10:18:37;13.30;99.90
64396;DHT22;50717;53.360;6.290;2022-10-19T10:21:21;13.60;99.90
64396;DHT22;50717;53.360;6.290;2022-10-19T10:24:00;13.60;99.90
64396;DHT22;50717;53.360;6.290;2022-10-19T10:26:27;13.60;99.90
64396;DHT22;50717;53.360;6.290;2022-10-19T10:28:52;13.70;99.90
64396;DHT22;50717;53.360;6.290;2022-10-19T10:31:23;13.60;99.90
64396;DHT22;50717;53.360;6.290;2022-10-19T10:33:55;13.30;99.90
64396;DHT22;50717;53.360;6.290;2022-10-19T10:36:24;13.40;99.90
64396;DHT22;50717;53.360;6.290;2022-10-19T10:38:53;13.60;99.90
64396;DHT22;50717;53.360;6.290;2022-10-19T10:41:22;13.70;99.90
64396;DHT22;50717;53.360;6.290;2022-10-19T10:43:58;13.70;99.90
64396;DHT22;50717;53.360;6.290;2022-10-19T10:46:27;13.90;99.90
64396;DHT22;50717;53.360;6.290;2022-10-19T10:48:57;13.70;99.90
64396;DHT22;50717;53.360;6.290;2022-10-19T10:51:39;14.00;99.90
64396;DHT22;50717;53.360;6.290;2022-10-19T10:54:31;13.90;99.90
64396;DHT22;50717;53.360;6.290;2022-10-19T10:57:12;13.90;99.90
64396;DHT22;50717;53.360;6.290;2022-10-19T11:02:34;14.10;99.90
64396;DHT22;50717;53.360;6.290;2022-10-19T11:05:21;14.00;99.90
64396;DHT22;50717;53.360;6.290;2022-10-19T11:08:02;13.70;99.90
64396;DHT22;50717;53.360;6.290;2022-10-19T11:10:38;13.80;99.90
64396;DHT22;50717;53.360;6.290;2022-10-19T11:15:59;14.20;99.90
64396;DHT22;50717;53.360;6.290;2022-10-19T11:18:36;14.40;99.90
64396;DHT22;50717;53.360;6.290;2022-10-19T11:21:08;14.30;99.90
64396;DHT22;50717;53.360;6.290;2022-10-19T11:29:49;14.30;99.90
64396;DHT22;50717;53.360;6.290;2022-10-19T11:32:20;14.70;99.90
64396;DHT22;50717;53.360;6.290;2022-10-19T11:37:57;14.60;99.90
64396;DHT22;50717;53.360;6.290;2022-10-19T11:43:03;14.60;99.90
64396;DHT22;50717;53.360;6.290;2022-10-19T11:48:37;14.70;99.90
64396;DHT22;50717;53.360;6.290;2022-10-19T11:51:08;14.30;99.90
64396;DHT22;50717;53.360;6.290;2022-10-19T11:56:18;14.90;99.90
64396;DHT22;50717;53.360;6.290;2022-10-19T12:14:42;14.10;99.90
64396;DHT22;50717;53.360;6.290;2022-10-19T12:17:27;14.50;99.90
64396;DHT22;50717;53.360;6.290;2022-10-19T12:20:02;14.40;99.90
64396;DHT22;50717;53.360;6.290;2022-10-19T12:22:30;14.80;99.90
64396;DHT22;50717;53.360;6.290;2022-10-19T12:24:59;14.50;99.90
64396;DHT22;50717;53.360;6.290;2022-10-19T12:27:36;14.50;99.90
64396;DHT22;50717;53.360;6.290;2022-10-19T12:30:12;14.40;99.90
64396;DHT22;50717;53.360;6.290;2022-10-19T12:33:00;14.20;99.90
64396;DHT22;50717;53.360;6.290;2022-10-19T12:35:38;13.90;99.90
64396;DHT22;50717;53.360;6.290;2022-10-19T12:46:45;13.80;99.90
64396;DHT22;50717;53.360;6.290;2022-10-19T12:49:33;13.60;99.90
64396;DHT22;50717;53.360;6.290;2022-10-19T12:52:00;14.10;99.90
64396;DHT22;50717;53.360;6.290;2022-10-19T12:54:35;14.00;99.90
64396;DHT22;50717;53.360;6.290;2022-10-19T12:57:03;13.80;99.90
64396;DHT22;50717;53.360;6.290;2022-10-19T12:59:43;14.00;99.90
64396;DHT22;50717;53.360;6.290;2022-10-19T13:02:26;13.90;99.90
64396;DHT22;50717;53.360;6.290;2022-10-19T13:04:53;13.70;99.90
64396;DHT22;50717;53.360;6.290;2022-10-19T13:07:19;13.70;99.90
64396;DHT22;50717;53.360;6.290;2022-10-19T13:09:45;13.60;99.90
64396;DHT22;50717;53.360;6.290;2022-10-19T13:14:59;14.80;99.90
64396;DHT22;50717;53.360;6.290;2022-10-19T13:22:45;15.60;99.90
64396;DHT22;50717;53.360;6.290;2022-10-19T13:36:09;15.50;99.90
64396;DHT22;50717;53.360;6.290;2022-10-19T13:46:51;15.00;99.90
64396;DHT22;50717;53.360;6.290;2022-10-19T13:55:09;14.40;99.90
64396;DHT22;50717;53.360;6.290;2022-10-19T14:06:49;14.10;99.90
64396;DHT22;50717;53.360;6.290;2022-10-19T14:12:07;14.30;99.90
64396;DHT22;50717;53.360;6.290;2022-10-19T14:14:40;14.00;99.90
64396;DHT22;50717;53.360;6.290;2022-10-19T14:17:32;13.80;99.90
64396;DHT22;50717;53.360;6.290;2022-10-19T14:22:51;14.00;99.90
64396;DHT22;50717;53.360;6.290;2022-10-19T14:25:21;14.10;99.90
64396;DHT22;50717;53.360;6.290;2022-10-19T14:27:50;13.90;99.90
64396;DHT22;50717;53.360;6.290;2022-10-19T14:30:27;14.00;99.90
64396;DHT22;50717;53.360;6.290;2022-10-19T14:32:54;13.50;99.90
64396;DHT22;50717;53.360;6.290;2022-10-19T14:35:26;13.80;99.90
64396;DHT22;50717;53.360;6.290;2022-10-19T14:37:52;13.60;99.90
64396;DHT22;50717;53.360;6.290;2022-10-19T14:40:22;13.50;99.90
64396;DHT22;50717;53.360;6.290;2022-10-19T14:42:49;13.40;99.90
64396;DHT22;50717;53.360;6.290;2022-10-19T14:45:40;13.40;99.90
64396;DHT22;50717;53.360;6.290;2022-10-19T14:48:16;13.70;99.90
64396;DHT22;50717;53.360;6.290;2022-10-19T14:50:54;13.70;99.90
64396;DHT22;50717;53.360;6.290;2022-10-19T14:53:32;13.50;99.90
64396;DHT22;50717;53.360;6.290;2022-10-19T14:56:22;13.40;99.90
64396;DHT22;50717;53.360;6.290;2022-10-19T14:58:58;13.40;99.90
64396;DHT22;50717;53.360;6.290;2022-10-19T15:01:25;13.30;99.90
64396;DHT22;50717;53.360;6.290;2022-10-19T15:03:50;13.40;99.90
64396;DHT22;50717;53.360;6.290;2022-10-19T15:06:32;13.30;99.90
64396;DHT22;50717;53.360;6.290;2022-10-19T15:09:07;13.50;99.90
64396;DHT22;50717;53.360;6.290;2022-10-19T15:11:42;13.30;99.90
64396;DHT22;50717;53.360;6.290;2022-10-19T15:14:25;13.10;99.90
64396;DHT22;50717;53.360;6.290;2022-10-19T15:17:03;13.10;99.90
64396;DHT22;50717;53.360;6.290;2022-10-19T15:24:52;13.10;99.90
64396;DHT22;50717;53.360;6.290;2022-10-19T15:27:21;12.70;99.90
64396;DHT22;50717;53.360;6.290;2022-10-19T15:30:03;12.80;99.90
64396;DHT22;50717;53.360;6.290;2022-10-19T15:32:34;12.60;99.90
64396;DHT22;50717;53.360;6.290;2022-10-19T15:40:38;12.50;99.90
64396;DHT22;50717;53.360;6.290;2022-10-19T15:46:02;12.50;99.90
64396;DHT22;50717;53.360;6.290;2022-10-19T15:53:53;12.20;99.90
64396;DHT22;50717;53.360;6.290;2022-10-19T15:56:20;12.30;99.90
64396;DHT22;50717;53.360;6.290;2022-10-19T15:58:50;12.20;99.90
64396;DHT22;50717;53.360;6.290;2022-10-19T16:01:24;12.20;99.90
64396;DHT22;50717;53.360;6.290;2022-10-19T16:03:51;12.10;99.90
64396;DHT22;50717;53.360;6.290;2022-10-19T16:06:17;12.00;99.90
64396;DHT22;50717;53.360;6.290;2022-10-19T16:08:44;12.30;99.90
64396;DHT22;50717;53.360;6.290;2022-10-19T16:11:16;12.00;99.90
64396;DHT22;50717;53.360;6.290;2022-10-19T16:13:43;12.40;99.90
64396;DHT22;50717;53.360;6.290;2022-10-19T16:16:09;11.90;99.90
64396;DHT22;50717;53.360;6.290;2022-10-19T16:18:36;11.90;99.90
64396;DHT22;50717;53.360;6.290;2022-10-19T16:21:02;11.80;99.90
64396;DHT22;50717;53.360;6.290;2022-10-19T16:23:28;11.60;99.90
64396;DHT22;50717;53.360;6.290;2022-10-19T16:25:55;11.50;99.90
64396;DHT22;50717;53.360;6.290;2022-10-19T16:28:21;11.70;99.90
64396;DHT22;50717;53.360;6.290;2022-10-19T16:30:53;11.80;99.90
64396;DHT22;50717;53.360;6.290;2022-10-19T16:33:19;11.70;99.90
64396;DHT22;50717;53.360;6.290;2022-10-19T16:35:45;11.60;99.90
64396;DHT22;50717;53.360;6.290;2022-10-19T16:38:11;11.10;99.90
64396;DHT22;50717;53.360;6.290;2022-10-19T16:40:37;11.30;99.90
64396;DHT22;50717;53.360;6.290;2022-10-19T16:43:03;11.40;99.90
64396;DHT22;50717;53.360;6.290;2022-10-19T16:45:29;11.30;99.90
64396;DHT22;50717;53.360;6.290;2022-10-19T16:47:55;11.60;99.90
64396;DHT22;50717;53.360;6.290;2022-10-19T16:50:20;11.20;99.90
64396;DHT22;50717;53.360;6.290;2022-10-19T16:52:46;11.00;99.90
64396;DHT22;50717;53.360;6.290;2022-10-19T16:55:12;11.10;99.90
64396;DHT22;50717;53.360;6.290;2022-10-19T16:57:37;11.10;99.90
64396;DHT22;50717;53.360;6.290;2022-10-19T17:00:04;11.00;99.90
64396;DHT22;50717;53.360;6.290;2022-10-19T17:02:31;10.90;99.90
64396;DHT22;50717;53.360;6.290;2022-10-19T17:04:56;11.20;99.90
64396;DHT22;50717;53.360;6.290;2022-10-19T17:07:22;10.90;99.90
64396;DHT22;50717;53.360;6.290;2022-10-19T17:09:48;11.60;99.90
64396;DHT22;50717;53.360;6.290;2022-10-19T17:12:14;10.90;99.90
64396;DHT22;50717;53.360;6.290;2022-10-19T17:14:41;11.30;99.90
64396;DHT22;50717;53.360;6.290;2022-10-19T17:17:08;10.80;99.90
64396;DHT22;50717;53.360;6.290;2022-10-19T17:19:35;10.80;99.90
64396;DHT22;50717;53.360;6.290;2022-10-19T17:22:01;10.90;99.90
64396;DHT22;50717;53.360;6.290;2022-10-19T17:24:28;11.00;99.90
64396;DHT22;50717;53.360;6.290;2022-10-19T17:26:54;10.90;99.90
64396;DHT22;50717;53.360;6.290;2022-10-19T17:29:20;10.90;99.90
64396;DHT22;50717;53.360;6.290;2022-10-19T17:31:47;10.80;99.90
64396;DHT22;50717;53.360;6.290;2022-10-19T17:34:14;10.90;99.90
64396;DHT22;50717;53.360;6.290;2022-10-19T17:36:41;10.80;99.90
64396;DHT22;50717;53.360;6.290;2022-10-19T17:39:12;10.90;99.90
64396;DHT22;50717;53.360;6.290;2022-10-19T17:41:39;10.90;99.90
64396;DHT22;50717;53.360;6.290;2022-10-19T17:44:05;10.90;99.90
64396;DHT22;50717;53.360;6.290;2022-10-19T17:46:33;10.60;99.90
64396;DHT22;50717;53.360;6.290;2022-10-19T17:48:59;10.70;99.90
64396;DHT22;50717;53.360;6.290;2022-10-19T17:51:27;10.70;99.90
64396;DHT22;50717;53.360;6.290;2022-10-19T17:54:02;10.80;99.90
64396;DHT22;50717;53.360;6.290;2022-10-19T17:56:29;10.70;99.90
64396;DHT22;50717;53.360;6.290;2022-10-19T17:58:56;10.40;99.90
64396;DHT22;50717;53.360;6.290;2022-10-19T18:01:23;10.70;99.90
64396;DHT22;50717;53.360;6.290;2022-10-19T18:03:49;10.50;99.90
64396;DHT22;50717;53.360;6.290;2022-10-19T18:06:20;10.80;99.90
64396;DHT22;50717;53.360;6.290;2022-10-19T18:08:51;10.60;99.90
64396;DHT22;50717;53.360;6.290;2022-10-19T18:11:24;10.40;99.90
64396;DHT22;50717;53.360;6.290;2022-10-19T18:13:52;10.80;99.90
64396;DHT22;50717;53.360;6.290;2022-10-19T18:16:27;10.50;99.90
64396;DHT22;50717;53.360;6.290;2022-10-19T18:18:54;10.40;99.90
64396;DHT22;50717;53.360;6.290;2022-10-19T18:21:23;10.40;99.90
64396;DHT22;50717;53.360;6.290;2022-10-19T18:23:50;10.40;99.90